Time;durP1;ratioP1;P1;durP2;ratioP2;P2;SDS_P1;SDS_P2;PMS_P1;PMS_P2;Temp;Humidity;BMP_temperature;BMP_pressure;BME280_temperature;BME280_humidity;BME280_pressure;Samples;Min_cycle;Max_cycle;Signal;HPM_P1;HPM_P2
2022/07/24 00:01:44;;;;;;;9.02;4.07;;;;;;;25.46;44.29;100054.88;5025955;28;20028;-30
2022/07/24 00:04:09;;;;;;;6.93;4.10;;;;;;;25.29;44.26;100043.91;5027418;28;20505;-28
2022/07/24 00:06:35;;;;;;;7.13;3.70;;;;;;;25.04;46.13;100054.41;5027487;28;20041;-28
2022/07/24 00:09:00;;;;;;;6.25;3.60;;;;;;;25.23;46.30;100046.81;5027425;28;20545;-28
2022/07/24 00:11:26;;;;;;;7.90;3.97;;;;;;;24.99;46.61;100046.41;5027236;28;20041;-27
2022/07/24 00:13:52;;;;;;;8.23;4.35;;;;;;;24.90;46.43;100032.69;5025721;28;20029;-27
2022/07/24 00:16:18;;;;;;;7.22;4.28;;;;;;;24.94;46.94;100052.78;5024965;28;20057;-32
2022/07/24 00:18:43;;;;;;;7.63;4.05;;;;;;;24.49;47.48;100055.59;5027208;28;20505;-30
2022/07/24 00:21:09;;;;;;;7.75;3.88;;;;;;;24.36;48.97;100054.56;5025819;28;20033;-29
2022/07/24 00:23:34;;;;;;;6.70;4.25;;;;;;;24.65;48.16;100058.75;5026912;28;20029;-28
2022/07/24 00:26:00;;;;;;;6.53;4.10;;;;;;;24.33;49.03;100041.53;5027307;28;20421;-28
2022/07/24 00:28:25;;;;;;;6.75;4.15;;;;;;;24.62;48.39;100048.47;5025567;28;20052;-28
2022/07/24 00:30:51;;;;;;;6.20;4.20;;;;;;;24.44;48.25;100051.09;5025614;28;20029;-28
2022/07/24 00:33:17;;;;;;;6.55;4.38;;;;;;;24.16;49.38;100050.41;5027196;28;20116;-31
2022/07/24 00:35:43;;;;;;;7.70;4.88;;;;;;;23.94;49.83;100062.09;5027085;28;20103;-27
2022/07/24 00:38:09;;;;;;;6.75;4.20;;;;;;;23.86;50.05;100060.94;5027201;28;20056;-30
2022/07/24 00:40:34;;;;;;;7.60;4.53;;;;;;;23.80;50.37;100050.47;5025530;28;20095;-28
2022/07/24 00:43:01;;;;;;;9.18;4.68;;;;;;;23.90;50.47;100058.38;5026950;28;20021;-27
2022/07/24 00:45:26;;;;;;;7.85;4.07;;;;;;;24.21;49.72;100065.84;5025326;28;20520;-28
2022/07/24 00:47:52;;;;;;;7.43;4.30;;;;;;;24.06;50.12;100059.63;5027131;28;20052;-27
2022/07/24 00:50:18;;;;;;;8.23;4.57;;;;;;;24.24;49.23;100040.69;5027133;28;20033;-28
2022/07/24 00:52:47;;;;;;;6.88;4.65;;;;;;;24.50;48.99;100061.88;5025648;28;20029;-28
2022/07/24 00:55:12;;;;;;;7.88;4.38;;;;;;;24.23;49.06;100036.34;5042280;28;20083;-29
2022/07/24 00:57:38;;;;;;;6.93;4.28;;;;;;;24.30;49.99;100063.97;5026596;28;20025;-32
2022/07/24 01:00:06;;;;;;;8.63;4.60;;;;;;;23.86;50.50;100046.50;5026752;28;20041;-27
2022/07/24 01:02:33;;;;;;;7.72;4.45;;;;;;;23.66;50.81;100061.38;5025514;28;20026;-30
2022/07/24 01:04:58;;;;;;;8.35;4.70;;;;;;;24.14;49.17;100062.75;5027228;28;20029;-28
2022/07/24 01:07:24;;;;;;;10.32;4.72;;;;;;;23.89;49.78;100047.81;5026742;28;20036;-30
2022/07/24 01:09:51;;;;;;;8.15;4.95;;;;;;;23.81;51.05;100073.88;5026883;28;20033;-29
2022/07/24 01:12:17;;;;;;;9.43;4.80;;;;;;;23.58;51.08;100059.34;5025253;28;20048;-29
2022/07/24 01:14:43;;;;;;;8.32;4.53;;;;;;;23.31;52.69;100061.00;5026828;28;20083;-28
2022/07/24 01:17:09;;;;;;;9.38;5.10;;;;;;;23.19;53.07;100058.00;5025127;28;20402;-29
2022/07/24 01:19:35;;;;;;;8.15;4.97;;;;;;;23.10;53.19;100043.53;5025009;28;20191;-29
2022/07/24 01:22:00;;;;;;;8.77;5.32;;;;;;;22.92;53.35;100053.34;5025352;28;20545;-30
2022/07/24 01:24:26;;;;;;;9.77;5.70;;;;;;;23.43;52.00;100049.63;5026536;28;20022;-29
2022/07/24 01:26:51;;;;;;;8.55;5.93;;;;;;;23.55;51.92;100049.09;5026652;28;20029;-29
2022/07/24 01:29:17;;;;;;;18.75;7.88;;;;;;;23.38;51.35;100033.41;5028516;28;20482;-35
2022/07/24 01:31:42;;;;;;;11.13;7.57;;;;;;;23.27;51.89;100021.91;5030376;28;20401;-28
2022/07/24 01:34:08;;;;;;;14.90;8.02;;;;;;;23.33;52.38;100031.59;5028706;28;20030;-29
2022/07/24 01:36:33;;;;;;;13.35;7.95;;;;;;;23.65;51.79;100048.88;5030250;28;20022;-27
2022/07/24 01:38:59;;;;;;;15.18;8.82;;;;;;;23.47;51.56;100048.69;5030127;28;20699;-27
2022/07/24 01:41:24;;;;;;;12.63;7.97;;;;;;;23.45;51.72;100031.06;5028170;28;20037;-28
2022/07/24 01:43:50;;;;;;;11.52;7.03;;;;;;;23.40;52.46;100036.63;5028435;28;20033;-28
2022/07/24 01:46:15;;;;;;;11.93;7.32;;;;;;;22.88;53.29;100020.50;5029895;28;20037;-32
2022/07/24 01:48:43;;;;;;;13.15;7.63;;;;;;;22.89;53.59;100021.34;5029786;28;20022;-31
2022/07/24 01:51:09;;;;;;;11.77;7.63;;;;;;;22.66;54.94;100022.03;5028643;28;20116;-34
2022/07/24 01:53:34;;;;;;;11.00;7.30;;;;;;;22.78;53.65;100024.25;5029707;28;20476;-28
2022/07/24 01:56:00;;;;;;;13.77;7.95;;;;;;;22.78;54.59;100034.31;5029576;28;20033;-28
2022/07/24 01:58:26;;;;;;;11.18;7.47;;;;;;;23.08;53.37;100035.66;5028394;28;20112;-30
2022/07/24 02:00:51;;;;;;;13.20;6.82;;;;;;;23.11;53.03;100018.75;5029806;28;20108;-28
2022/07/24 02:03:18;;;;;;;9.85;6.90;;;;;;;23.43;53.06;100027.84;5029299;28;20087;-32
2022/07/24 02:05:44;;;;;;;11.18;6.55;;;;;;;23.21;52.76;100029.41;5028214;28;20025;-30
2022/07/24 02:08:09;;;;;;;10.48;6.57;;;;;;;23.26;52.71;100015.69;5028040;28;20036;-28
2022/07/24 02:10:35;;;;;;;12.18;6.93;;;;;;;23.38;52.67;100017.09;5029516;28;20025;-28
2022/07/24 02:13:00;;;;;;;14.15;6.97;;;;;;;23.05;53.08;100014.50;5011429;28;20512;-28
2022/07/24 02:15:26;;;;;;;12.27;6.70;;;;;;;22.84;53.60;100017.63;5027794;28;20057;-31
2022/07/24 02:17:54;;;;;;;10.52;6.88;;;;;;;23.12;53.73;100025.78;5028308;28;20068;-28
2022/07/24 02:20:20;;;;;;;10.50;6.57;;;;;;;22.87;54.72;100030.59;5028457;28;20120;-28
2022/07/24 02:22:46;;;;;;;10.23;6.40;;;;;;;22.43;55.46;100031.97;5029666;28;20040;-29
2022/07/24 02:25:12;;;;;;;11.27;6.50;;;;;;;22.53;55.31;100030.16;5029314;28;20065;-30
2022/07/24 02:27:38;;;;;;;10.90;6.10;;;;;;;22.65;54.54;100028.56;5027568;28;20412;-29
2022/07/24 02:30:15;;;;;;;10.05;6.40;;;;;;;23.08;53.75;100035.66;5029835;28;20095;-27
2022/07/24 02:32:40;;;;;;;11.43;7.10;;;;;;;23.09;53.50;100020.97;5028203;28;20026;-27
2022/07/24 02:35:06;;;;;;;11.65;6.80;;;;;;;23.15;53.75;100035.25;5027874;28;20037;-29
2022/07/24 02:37:32;;;;;;;10.02;6.10;;;;;;;23.03;54.29;100022.19;5027617;28;20132;-28
2022/07/24 02:39:57;;;;;;;12.52;6.30;;;;;;;23.03;54.20;100036.56;5028830;28;20048;-26
2022/07/24 02:42:23;;;;;;;10.98;6.63;;;;;;;22.94;54.07;99997.56;5029442;28;20025;-29
2022/07/24 02:44:48;;;;;;;14.27;6.72;;;;;;;23.34;52.94;100035.94;5027611;28;20099;-36
2022/07/24 02:47:14;;;;;;;13.68;6.88;;;;;;;23.03;53.40;100003.94;5029480;28;20110;-28
2022/07/24 02:49:40;;;;;;;11.55;6.32;;;;;;;22.94;54.30;100021.22;5027544;28;20144;-27
2022/07/24 02:52:05;;;;;;;12.73;7.30;;;;;;;23.09;53.31;100039.19;5028737;28;20445;-28
2022/07/24 02:54:31;;;;;;;11.63;6.20;;;;;;;23.21;53.00;100029.41;5028665;28;20037;-28
2022/07/24 02:56:56;;;;;;;11.48;6.28;;;;;;;23.17;52.67;100019.41;5029035;28;20037;-27
2022/07/24 02:59:22;;;;;;;10.20;6.25;;;;;;;23.33;52.05;100030.78;5028785;28;20021;-28
2022/07/24 03:01:47;;;;;;;12.13;6.20;;;;;;;22.79;53.35;100012.25;5027629;28;20107;-29
2022/07/24 03:04:13;;;;;;;13.07;6.50;;;;;;;23.21;52.25;100021.25;5028647;28;20032;-29
2022/07/24 03:06:39;;;;;;;18.63;6.65;;;;;;;23.25;51.94;100038.56;5028617;28;20136;-27
2022/07/24 03:09:04;;;;;;;12.15;6.35;;;;;;;22.74;52.90;100020.53;5028481;28;20508;-28
2022/07/24 03:11:30;;;;;;;14.52;5.43;;;;;;;22.75;52.96;100016.69;5028724;28;20033;-30
2022/07/24 03:14:11;;;;;;;11.77;5.40;;;;;;;22.72;53.63;100032.78;5028404;28;20018;-27
2022/07/24 03:16:37;;;;;;;10.15;5.05;;;;;;;22.18;54.93;100026.94;5023833;28;20049;-29
2022/07/24 03:19:03;;;;;;;10.55;5.38;;;;;;;21.85;55.87;100030.44;5028509;28;20040;-30
2022/07/24 03:21:28;;;;;;;9.85;5.55;;;;;;;22.21;55.48;100038.00;5028677;28;20041;-27
2022/07/24 03:23:54;;;;;;;12.20;5.43;;;;;;;21.89;55.53;100030.66;5026958;28;20021;-28
2022/07/24 03:26:19;;;;;;;14.18;6.50;;;;;;;22.23;55.24;100030.41;5027096;28;20033;-27
2022/07/24 03:28:45;;;;;;;10.50;5.63;;;;;;;22.65;53.97;100022.31;5028240;28;20083;-28
2022/07/24 03:31:10;;;;;;;9.35;4.82;;;;;;;22.78;52.73;100010.66;5028230;28;20037;-29
2022/07/24 03:33:35;;;;;;;15.38;5.43;;;;;;;22.86;52.45;100031.72;5028027;28;20079;-27
2022/07/24 03:36:01;;;;;;;10.07;5.65;;;;;;;;;;5028230;28;20543;-29
2022/07/24 03:38:26;;;;;;;15.90;5.47;;;;;;;22.57;52.64;99998.56;5027920;28;20065;-29
2022/07/24 03:40:52;;;;;;;11.80;5.55;;;;;;;22.35;53.52;100024.50;5026650;28;20032;-27
2022/07/24 03:43:17;;;;;;;13.20;5.60;;;;;;;22.38;54.16;100033.97;5027701;28;20040;-38
2022/07/24 03:45:43;;;;;;;11.68;5.75;;;;;;;21.89;56.09;100013.56;5028330;28;20033;-28
2022/07/24 03:48:08;;;;;;;12.32;5.72;;;;;;;21.87;56.40;100013.84;5028076;28;20064;-31
2022/07/24 03:50:34;;;;;;;14.80;5.43;;;;;;;21.78;57.23;100031.91;5027040;28;20033;-27
2022/07/24 03:52:59;;;;;;;19.25;6.43;;;;;;;22.15;56.76;100041.09;5026292;28;20033;-28
2022/07/24 03:55:25;;;;;;;17.77;6.35;;;;;;;21.73;57.87;100034.69;5027833;28;20029;-27
2022/07/24 03:57:50;;;;;;;12.68;6.53;;;;;;;21.67;58.50;100039.38;5027987;28;20030;-29
2022/07/24 04:00:16;;;;;;;19.05;6.40;;;;;;;21.77;57.76;100017.53;5027881;28;20037;-27
2022/07/24 04:02:41;;;;;;;13.93;6.07;;;;;;;21.87;58.31;100036.38;5027634;28;20418;-27
2022/07/24 04:05:08;;;;;;;16.17;6.95;;;;;;;21.76;58.29;100021.34;5027797;28;20083;-31
2022/07/24 04:07:37;;;;;;;17.87;6.77;;;;;;;22.17;56.88;100045.16;5025823;28;20638;-30
2022/07/24 04:10:05;;;;;;;16.60;6.18;;;;;;;22.38;56.29;100042.13;5026390;28;20711;-28
2022/07/24 04:12:31;;;;;;;18.58;6.03;;;;;;;22.49;56.17;100050.88;5026205;28;20064;-29
2022/07/24 04:14:56;;;;;;;13.32;6.93;;;;;;;22.46;56.08;100055.81;5027544;28;20018;-27
2022/07/24 04:17:22;;;;;;;12.70;6.53;;;;;;;22.25;57.02;100039.06;5027149;28;20049;-27
2022/07/24 04:19:47;;;;;;;11.18;6.20;;;;;;;22.01;57.44;100046.50;5027562;28;20041;-29
2022/07/24 04:22:12;;;;;;;14.80;6.57;;;;;;;22.12;57.61;100038.97;5027499;28;20489;-31
2022/07/24 04:24:38;;;;;;;11.05;6.20;;;;;;;22.14;58.02;100043.00;5027387;28;20141;-31
2022/07/24 04:27:03;;;;;;;15.40;6.70;;;;;;;22.15;58.39;100046.53;5027754;28;20026;-27
2022/07/24 04:29:29;;;;;;;11.13;6.55;;;;;;;22.17;58.16;100038.88;5027470;28;20057;-30
2022/07/24 04:31:55;;;;;;;16.67;7.50;;;;;;;21.99;58.50;100011.47;5027764;28;20040;-29
2022/07/24 04:34:21;;;;;;;12.38;6.93;;;;;;;22.41;58.41;100055.09;5025794;28;20456;-30
2022/07/24 04:36:46;;;;;;;10.32;6.22;;;;;;;22.31;58.79;100038.97;5025925;28;20436;-27
2022/07/24 04:39:12;;;;;;;11.52;5.85;;;;;;;22.35;59.31;100062.53;5027845;28;20025;-30
2022/07/24 04:41:37;;;;;;;13.25;6.15;;;;;;;22.30;59.29;100035.44;5027343;28;20032;-29
2022/07/24 04:44:03;;;;;;;10.68;6.38;;;;;;;22.53;58.74;100062.78;5027287;28;20037;-33
2022/07/24 04:46:28;;;;;;;12.15;6.40;;;;;;;22.48;58.91;100049.28;5026979;28;20052;-28
2022/07/24 04:48:54;;;;;;;12.13;6.05;;;;;;;22.67;58.47;100060.88;5027140;28;20072;-28
2022/07/24 04:51:19;;;;;;;10.90;6.30;;;;;;;22.67;58.98;100041.84;5026586;28;20497;-32
2022/07/24 04:53:46;;;;;;;10.30;6.10;;;;;;;22.94;58.16;100062.81;5027352;28;20099;-27
2022/07/24 04:56:11;;;;;;;9.52;6.07;;;;;;;23.05;57.67;100033.56;5027389;28;20029;-27
2022/07/24 04:58:37;;;;;;;20.23;6.90;;;;;;;23.06;57.55;100024.28;5025938;28;20034;-27
2022/07/24 05:01:02;;;;;;;11.60;6.57;;;;;;;23.29;57.06;100057.78;5027962;28;20030;-28
2022/07/24 05:03:27;;;;;;;18.13;6.82;;;;;;;23.43;56.41;100053.13;5030492;28;20456;-27
2022/07/24 05:05:53;;;;;;;13.15;6.85;;;;;;;23.63;55.56;100046.44;5030998;28;20621;-30
2022/07/24 05:08:19;;;;;;;12.35;6.45;;;;;;;23.72;56.63;100057.44;5031206;28;20025;-30
2022/07/24 05:10:44;;;;;;;10.07;6.22;;;;;;;23.89;55.80;100051.34;5029792;28;20026;-28
2022/07/24 05:13:09;;;;;;;11.20;7.15;;;;;;;23.95;55.13;100063.72;5029521;28;20637;-27
2022/07/24 05:15:35;;;;;;;14.48;6.43;;;;;;;23.73;55.39;100044.63;5030419;28;20049;-30
2022/07/24 05:18:00;;;;;;;10.20;6.20;;;;;;;23.86;54.53;100060.94;5027635;28;20042;-33
2022/07/24 05:20:26;;;;;;;10.00;6.07;;;;;;;24.16;54.49;100061.31;5025655;28;20030;-31
2022/07/24 05:22:51;;;;;;;11.32;6.45;;;;;;;24.31;53.61;100040.25;5010663;28;20157;-27
2022/07/24 05:25:17;;;;;;;13.10;7.30;;;;;;;24.63;53.53;100050.88;5009194;28;20072;-29
2022/07/24 05:27:43;;;;;;;10.40;6.00;;;;;;;24.90;51.83;100053.72;5010757;28;20437;-28
2022/07/24 05:30:09;;;;;;;13.82;6.60;;;;;;;24.98;51.62;100029.19;5010467;28;20549;-28
2022/07/24 05:32:34;;;;;;;11.57;6.05;;;;;;;25.14;51.42;100040.47;5009197;28;20042;-28
2022/07/24 05:35:00;;;;;;;10.85;5.90;;;;;;;25.31;50.34;100047.13;5010185;28;20038;-28
2022/07/24 05:37:26;;;;;;;9.00;5.47;;;;;;;25.36;50.21;100038.81;5019607;28;20034;-31
2022/07/24 05:39:51;;;;;;;8.43;6.20;;;;;;;25.39;50.19;100038.16;5010181;28;20030;-27
2022/07/24 05:42:17;;;;;;;12.18;5.60;;;;;;;25.54;51.25;100034.97;5010168;28;20022;-30
2022/07/24 05:44:42;;;;;;;10.45;5.20;;;;;;;25.63;50.95;100032.25;5010080;28;20030;-28
2022/07/24 05:47:08;;;;;;;9.25;5.10;;;;;;;25.94;49.00;100040.28;5008564;28;20417;-29
2022/07/24 05:49:33;;;;;;;9.30;5.75;;;;;;;25.84;47.81;100026.94;5009642;28;20030;-28
2022/07/24 05:51:59;;;;;;;10.88;6.97;;;;;;;25.92;47.95;100056.22;5010045;28;20064;-29
2022/07/24 05:54:25;;;;;;;10.30;5.82;;;;;;;25.94;48.46;100042.22;5008539;28;20033;-28
2022/07/24 05:56:51;;;;;;;10.45;5.05;;;;;;;25.75;47.93;100023.41;5010017;28;20418;-33
2022/07/24 05:59:16;;;;;;;10.57;5.50;;;;;;;25.76;46.65;100031.25;5008625;28;20429;-28
2022/07/24 06:01:41;;;;;;;10.25;6.15;;;;;;;26.00;46.66;100049.94;5009494;28;20412;-28
2022/07/24 06:04:07;;;;;;;8.88;5.50;;;;;;;26.03;45.69;100030.19;5008334;28;20519;-28
2022/07/24 06:06:33;;;;;;;9.40;5.82;;;;;;;25.84;46.55;100026.94;5009984;28;20029;-30
2022/07/24 06:08:58;;;;;;;8.90;5.95;;;;;;;26.19;46.86;100048.78;5008280;28;20768;-28
2022/07/24 06:11:23;;;;;;;10.55;6.25;;;;;;;26.20;46.85;100029.34;5009476;28;20026;-28
2022/07/24 06:13:49;;;;;;;11.63;5.88;;;;;;;26.48;45.08;100039.88;5009063;28;20496;-29
2022/07/24 06:16:15;;;;;;;8.35;5.47;;;;;;;26.64;46.36;100037.44;5009704;28;20050;-33
2022/07/24 06:18:41;;;;;;;8.48;5.20;;;;;;;26.61;46.05;100049.84;5009274;28;20037;-29
2022/07/24 06:21:06;;;;;;;8.57;5.75;;;;;;;26.41;46.51;100021.22;5008469;28;20034;-29
2022/07/24 06:23:32;;;;;;;12.93;5.65;;;;;;;26.35;47.37;100014.34;5009398;28;20030;-31
2022/07/24 06:25:58;;;;;;;12.40;6.10;;;;;;;26.35;45.57;100008.88;5008058;28;20069;-29
2022/07/24 06:28:23;;;;;;;12.15;5.75;;;;;;;26.44;46.31;100012.38;5008066;28;20029;-27
2022/07/24 06:30:49;;;;;;;10.13;6.20;;;;;;;26.75;45.77;100022.28;5009286;28;20018;-30
2022/07/24 06:33:14;;;;;;;10.45;5.65;;;;;;;26.90;44.42;100018.16;5009190;28;20026;-27
2022/07/24 06:35:40;;;;;;;9.07;5.47;;;;;;;26.92;45.25;100009.66;5009204;28;20118;-28
2022/07/24 06:38:05;;;;;;;11.82;7.85;;;;;;;27.02;45.96;99992.84;5009368;28;20065;-27
2022/07/24 06:40:31;;;;;;;10.15;5.43;;;;;;;27.29;45.80;99990.75;5009285;28;20034;-28
2022/07/24 06:42:56;;;;;;;9.20;5.55;;;;;;;27.52;44.08;100000.25;5009177;28;20025;-27
2022/07/24 06:45:21;;;;;;;10.57;5.90;;;;;;;27.79;43.61;99998.91;5008952;28;20026;-27
2022/07/24 06:47:47;;;;;;;18.13;10.50;;;;;;;27.74;43.97;99992.81;5008727;28;20033;-30
2022/07/24 06:50:13;;;;;;;12.85;9.07;;;;;;;27.88;43.43;99995.31;5008969;28;20468;-31
2022/07/24 06:52:39;;;;;;;7.72;5.78;;;;;;;28.05;43.35;99990.47;5007571;28;20034;-30
2022/07/24 06:55:05;;;;;;;11.77;5.90;;;;;;;28.32;42.43;100001.13;5007446;28;20030;-27
2022/07/24 06:57:31;;;;;;;8.98;5.68;;;;;;;28.49;42.31;99991.91;5007312;28;20100;-28
2022/07/24 06:59:57;;;;;;;9.52;5.20;;;;;;;28.41;41.05;99980.69;5007972;28;20075;-30
2022/07/24 07:02:22;;;;;;;9.70;5.18;;;;;;;28.68;40.58;99997.66;5007194;28;20029;-28
2022/07/24 07:04:49;;;;;;;11.15;5.22;;;;;;;28.68;41.72;99989.44;5007597;28;20464;-33
2022/07/24 07:07:15;;;;;;;9.55;5.72;;;;;;;28.91;43.55;99981.53;5008833;28;20053;-30
2022/07/24 07:09:41;;;;;;;10.20;5.05;;;;;;;28.81;41.28;99985.56;5007005;28;20045;-28
2022/07/24 07:12:07;;;;;;;10.65;5.68;;;;;;;28.71;40.93;99972.28;5006029;28;20545;-31
2022/07/24 07:14:33;;;;;;;9.65;5.03;;;;;;;28.94;41.61;99985.53;5007110;28;20036;-27
2022/07/24 07:16:58;;;;;;;9.90;5.25;;;;;;;28.90;42.60;99962.66;5007234;28;20050;-31
2022/07/24 07:19:24;;;;;;;9.95;5.15;;;;;;;29.29;39.92;99985.06;5008236;28;20418;-31
2022/07/24 07:21:49;;;;;;;8.20;5.07;;;;;;;29.53;39.80;99968.50;5007139;28;20513;-28
2022/07/24 07:24:15;;;;;;;7.55;5.43;;;;;;;29.61;39.63;99964.78;5008288;28;20044;-30
2022/07/24 07:26:40;;;;;;;12.35;5.35;;;;;;;29.51;40.88;99972.75;5008323;28;20029;-28
2022/07/24 07:29:06;;;;;;;7.82;5.40;;;;;;;29.56;39.48;99962.28;5008277;28;20022;-28
2022/07/24 07:31:31;;;;;;;8.27;4.95;;;;;;;29.63;40.51;99965.25;4989996;28;20057;-27
2022/07/24 07:33:58;;;;;;;8.65;5.13;;;;;;;29.79;38.33;99959.00;5008429;28;20030;-33
2022/07/24 07:36:24;;;;;;;11.45;5.82;;;;;;;29.90;38.41;99971.09;5006971;28;20096;-33
2022/07/24 07:38:49;;;;;;;9.02;5.70;;;;;;;30.20;39.93;99948.72;5006868;28;20030;-30
2022/07/24 07:41:15;;;;;;;12.00;5.95;;;;;;;30.40;37.48;99969.69;5008221;28;20040;-30
2022/07/24 07:43:41;;;;;;;9.50;5.90;;;;;;;30.49;37.56;99969.50;5006509;28;20034;-31
2022/07/24 07:46:07;;;;;;;10.55;6.00;;;;;;;30.70;38.82;99960.16;5007793;28;20030;-30
2022/07/24 07:48:32;;;;;;;12.43;6.57;;;;;;;30.69;36.54;99951.09;5006523;28;20030;-31
2022/07/24 07:50:59;;;;;;;13.50;7.20;;;;;;;30.88;36.37;99963.34;5007997;28;20048;-29
2022/07/24 07:53:24;;;;;;;8.93;6.18;;;;;;;30.90;35.67;99961.84;5005838;28;20026;-33
2022/07/24 07:55:52;;;;;;;11.20;5.35;;;;;;;30.95;37.09;99949.75;5007491;28;20075;-33
2022/07/24 07:58:18;;;;;;;;;;;;;;;31.07;36.26;99966.13;5007942;28;20029;-30
2022/07/24 08:00:43;;;;;;;10.07;6.32;;;;;;;31.18;35.42;99958.09;5005213;28;19937;-39
2022/07/24 08:03:09;;;;;;;9.77;6.60;;;;;;;31.21;36.14;99955.44;5001143;28;20052;-31
2022/07/24 08:05:34;;;;;;;12.18;7.00;;;;;;;31.27;33.99;99955.16;5007281;28;20076;-34
2022/07/24 08:08:00;;;;;;;10.93;6.75;;;;;;;31.41;34.93;99955.44;5007148;28;20041;-30
2022/07/24 08:10:26;;;;;;;9.57;6.32;;;;;;;31.54;34.60;99934.88;5007291;28;20025;-32
2022/07/24 08:12:51;;;;;;;9.02;6.15;;;;;;;31.73;35.30;99941.50;5007359;28;20041;-31
2022/07/24 08:15:17;;;;;;;8.52;5.88;;;;;;;31.80;33.14;99947.19;5005074;28;20108;-40
2022/07/24 08:17:43;;;;;;;8.90;5.82;;;;;;;32.00;33.42;99946.00;5007339;28;20042;-30
2022/07/24 08:20:09;;;;;;;10.48;6.20;;;;;;;31.94;32.45;99930.09;4989517;28;20037;-30
2022/07/24 08:22:35;;;;;;;9.43;5.43;;;;;;;31.84;34.21;99935.03;5007499;28;20291;-30
2022/07/24 08:25:00;;;;;;;11.02;6.13;;;;;;;31.98;33.82;99937.25;5007298;28;20061;-28
2022/07/24 08:27:25;;;;;;;10.30;6.20;;;;;;;32.13;33.73;99943.06;5006384;28;20030;-28
2022/07/24 08:29:51;;;;;;;10.65;6.13;;;;;;;32.09;32.42;99917.38;5007003;28;20088;-31
2022/07/24 08:32:16;;;;;;;11.20;6.20;;;;;;;31.96;34.01;99938.81;5005977;28;20034;-27
2022/07/24 08:34:42;;;;;;;9.55;5.85;;;;;;;32.10;33.51;99928.03;5007262;28;20038;-31
2022/07/24 08:37:07;;;;;;;11.07;6.50;;;;;;;32.51;33.54;99925.56;5006644;28;20033;-31
2022/07/24 08:39:33;;;;;;;11.70;5.60;;;;;;;32.65;32.95;99921.44;5007213;28;20430;-32
2022/07/24 08:41:58;;;;;;;11.23;6.15;;;;;;;32.75;31.83;99940.91;5007143;28;20041;-30
2022/07/24 08:44:24;;;;;;;10.55;7.00;;;;;;;32.95;33.06;99938.03;5006806;28;20830;-34
2022/07/24 08:46:49;;;;;;;11.85;6.20;;;;;;;32.83;32.49;99931.56;5007084;28;20112;-30
2022/07/24 08:49:15;;;;;;;11.35;6.60;;;;;;;32.70;32.72;99938.47;5005719;28;20088;-34
2022/07/24 08:51:43;;;;;;;10.55;6.40;;;;;;;32.78;32.64;99918.06;5006918;28;20475;-34
2022/07/24 08:54:10;;;;;;;15.13;6.63;;;;;;;33.13;31.69;99933.56;5005633;28;20486;-30
2022/07/24 08:56:41;;;;;;;11.07;7.30;;;;;;;33.49;31.67;99922.94;4989351;28;20034;-31
2022/07/24 08:59:22;;;;;;;11.35;7.22;;;;;;;33.28;31.44;99929.00;5005237;28;20068;-35
2022/07/24 09:01:48;;;;;;;10.98;6.80;;;;;;;33.23;30.15;99902.50;5007219;28;20076;-39
2022/07/24 09:04:35;;;;;;;14.88;6.80;;;;;;;33.30;31.44;99915.59;5021872;28;20473;-33
2022/07/24 09:07:05;;;;;;;11.23;6.72;;;;;;;33.51;29.82;99897.66;5005301;28;20026;-37
2022/07/24 09:09:31;;;;;;;11.02;6.25;;;;;;;33.17;31.07;99895.72;5004980;28;20041;-31
2022/07/24 09:12:17;;;;;;;10.73;6.38;;;;;;;33.23;31.81;99908.03;5006717;28;20022;-32
2022/07/24 09:14:47;;;;;;;13.98;6.82;;;;;;;33.30;31.62;99892.72;5006247;28;20155;-33
2022/07/24 09:17:16;;;;;;;13.88;6.97;;;;;;;33.96;30.05;99902.13;5005220;28;20049;-30
2022/07/24 09:19:55;;;;;;;14.25;7.28;;;;;;;33.87;29.23;99903.59;5005104;28;20042;-34
2022/07/24 09:22:36;;;;;;;11.75;6.63;;;;;;;33.89;28.04;99896.50;5021723;28;20095;-34
2022/07/24 09:25:13;;;;;;;10.40;6.63;;;;;;;34.09;29.27;99907.34;5005446;28;20037;-35
2022/07/24 09:28:01;;;;;;;13.40;6.32;;;;;;;33.99;29.65;99895.03;5004773;28;20120;-38
2022/07/24 09:30:46;;;;;;;10.30;6.80;;;;;;;33.85;29.28;99901.22;5004966;28;20034;-31
2022/07/24 09:33:11;;;;;;;10.70;6.97;;;;;;;34.19;28.94;99910.25;5006747;28;20030;-33
2022/07/24 09:35:47;;;;;;;8.88;6.20;;;;;;;34.03;29.19;99863.44;5004787;28;20044;-32
2022/07/24 09:38:24;;;;;;;10.70;6.68;;;;;;;34.03;29.66;99884.78;5004305;28;20124;-32
2022/07/24 09:40:52;;;;;;;12.85;5.95;;;;;;;34.27;29.47;99885.41;5004448;28;20036;-28
2022/07/24 09:43:19;;;;;;;13.65;6.72;;;;;;;34.59;28.24;99883.63;5004449;28;20033;-33
2022/07/24 09:46:06;;;;;;;10.30;7.00;;;;;;;34.68;28.83;99885.28;5004685;28;20041;-29
2022/07/24 09:48:34;;;;;;;12.23;6.30;;;;;;;34.95;28.97;99880.28;5007179;28;20076;-29
2022/07/24 09:51:05;;;;;;;8.32;6.20;;;;;;;35.03;28.65;99862.50;5024491;28;20034;-29
2022/07/24 09:53:33;;;;;;;14.23;6.30;;;;;;;35.00;28.51;99874.34;5009862;28;20030;-31
2022/07/24 09:56:06;;;;;;;12.75;5.85;;;;;;;35.11;28.84;99866.09;5024943;28;20033;-28
2022/07/24 09:58:35;;;;;;;13.77;7.03;;;;;;;35.16;29.84;99849.88;5008582;28;20095;-33
2022/07/24 10:01:02;;;;;;;11.98;6.30;;;;;;;35.64;26.87;99865.44;5024914;28;20037;-35
2022/07/24 10:03:29;;;;;;;;;;;;;;;35.50;27.11;99868.97;5011499;28;20111;-28
2022/07/24 10:05:56;;;;;;;;;;;;;;;35.52;28.10;99854.72;5026982;28;19913;-29
2022/07/24 10:08:21;;;;;;;;;;;;;;;35.81;27.25;99861.13;5027389;28;20755;-30
2022/07/24 10:10:49;;;;;;;11.27;6.23;;;;;;;35.95;28.82;99863.91;5021836;28;20443;-32
2022/07/24 10:13:16;;;;;;;14.77;6.45;;;;;;;36.17;26.95;99859.16;5023332;28;20030;-30
2022/07/24 10:16:12;;;;;;;13.30;6.50;;;;;;;35.78;27.85;99840.53;5027089;28;20524;-29
2022/07/24 10:18:46;;;;;;;11.38;5.95;;;;;;;36.34;26.80;99853.97;5027896;28;20038;-37
2022/07/24 10:21:18;;;;;;;13.50;7.00;;;;;;;36.01;26.17;99848.44;5027730;28;20424;-28
2022/07/24 10:24:03;;;;;;;12.15;6.15;;;;;;;36.28;26.96;99850.81;5010620;28;20040;-31
2022/07/24 10:26:37;;;;;;;10.13;6.40;;;;;;;36.56;26.14;99840.84;5027797;28;20497;-29
2022/07/24 10:29:09;;;;;;;8.02;5.93;;;;;;;36.83;26.04;99834.81;5026774;28;20088;-31
2022/07/24 10:31:40;;;;;;;14.50;5.93;;;;;;;36.52;25.83;99824.19;5024453;28;20072;-39
2022/07/24 10:34:41;;;;;;;11.73;6.20;;;;;;;36.40;25.29;99824.63;5021615;28;20033;-35
2022/07/24 10:37:35;;;;;;;8.98;6.00;;;;;;;36.28;26.19;99828.59;5026820;28;20044;-32
2022/07/24 10:40:13;;;;;;;11.60;6.38;;;;;;;36.19;26.97;99817.91;5025656;28;20053;-32
2022/07/24 10:43:09;;;;;;;13.82;7.53;;;;;;;36.59;26.70;99820.59;5028139;28;20026;-34
2022/07/24 10:45:55;;;;;;;9.63;6.15;;;;;;;36.66;25.91;99819.78;5025145;28;20032;-29
2022/07/24 10:48:21;;;;;;;11.15;6.32;;;;;;;36.89;25.93;99794.31;5026031;28;20033;-29
2022/07/24 10:50:59;;;;;;;13.20;6.32;;;;;;;37.24;25.46;99809.22;5028161;28;20018;-28
2022/07/24 10:53:49;;;;;;;11.02;5.97;;;;;;;37.48;24.12;99802.69;5023428;28;20390;-32
2022/07/24 10:56:32;;;;;;;14.77;6.85;;;;;;;37.68;25.26;99805.75;5026443;28;20034;-30
2022/07/24 10:58:58;;;;;;;9.20;6.28;;;;;;;38.12;24.34;99800.59;5027045;28;20029;-32
2022/07/24 11:01:42;;;;;;;15.27;6.53;;;;;;;38.29;24.09;99785.69;5027604;28;20033;-33
2022/07/24 11:04:20;;;;;;;12.32;6.18;;;;;;;38.61;24.08;99804.03;5025462;28;20033;-33
2022/07/24 11:07:15;;;;;;;9.25;5.93;;;;;;;38.39;23.71;99797.91;5025126;28;20021;-29
2022/07/24 11:10:01;;;;;;;9.25;5.55;;;;;;;38.56;23.34;99779.44;5026186;28;20413;-30
2022/07/24 11:12:29;;;;;;;10.52;6.03;;;;;;;38.52;22.38;99800.97;5023664;28;20021;-29
2022/07/24 11:17:49;;;;;;;13.23;6.20;;;;;;;38.75;23.49;99773.19;5025332;28;20099;-32
2022/07/24 11:20:19;;;;;;;13.90;6.50;;;;;;;38.45;21.46;99768.38;5025873;28;20559;-33
2022/07/24 11:22:52;;;;;;;14.80;6.95;;;;;;;38.53;22.81;99769.13;5024338;28;20036;-31
2022/07/24 11:25:23;;;;;;;9.52;6.45;;;;;;;38.54;22.59;99751.22;5025280;28;20025;-33
2022/07/24 11:28:05;;;;;;;12.52;6.60;;;;;;;38.26;22.23;99778.16;5023905;28;20021;-31
2022/07/24 11:30:31;;;;;;;9.75;7.05;;;;;;;38.46;23.63;99764.41;5023833;28;20057;-28